sensor_id;sensor_type;location;lat;lon;timestamp;pressure;altitude;pressure_sealevel;temperature;humidity
9225;BME280;4647;48.072;11.616;2023-01-28T00:00:05;95573.94;;;-1.92;85.54
9225;BME280;4647;48.072;11.616;2023-01-28T00:02:34;95567.91;;;-2.01;85.90
9225;BME280;4647;48.072;11.616;2023-01-28T00:05:04;95574.06;;;-2.09;85.75
9225;BME280;4647;48.072;11.616;2023-01-28T00:07:35;95565.94;;;-1.83;85.18
9225;BME280;4647;48.072;11.616;2023-01-28T00:10:05;95556.56;;;-2.10;85.94
9225;BME280;4647;48.072;11.616;2023-01-28T00:12:34;95561.72;;;-2.13;86.02
9225;BME280;4647;48.072;11.616;2023-01-28T00:15:03;95561.88;;;-2.10;86.06
9225;BME280;4647;48.072;11.616;2023-01-28T00:17:32;95560.72;;;-2.00;85.64
9225;BME280;4647;48.072;11.616;2023-01-28T00:20:01;95562.28;;;-1.99;85.55
9225;BME280;4647;48.072;11.616;2023-01-28T00:22:30;95563.06;;;-1.99;85.43
9225;BME280;4647;48.072;11.616;2023-01-28T00:25:02;95565.06;;;-1.96;85.54
9225;BME280;4647;48.072;11.616;2023-01-28T00:27:30;95564.41;;;-1.93;85.31
9225;BME280;4647;48.072;11.616;2023-01-28T00:29:59;95568.81;;;-1.97;85.85
9225;BME280;4647;48.072;11.616;2023-01-28T00:32:28;95565.16;;;-1.83;85.16
9225;BME280;4647;48.072;11.616;2023-01-28T00:34:57;95555.78;;;-1.90;85.21
9225;BME280;4647;48.072;11.616;2023-01-28T00:37:26;95562.09;;;-1.73;84.99
9225;BME280;4647;48.072;11.616;2023-01-28T00:39:57;95566.69;;;-1.82;84.98
9225;BME280;4647;48.072;11.616;2023-01-28T00:42:30;95562.41;;;-1.96;85.63
9225;BME280;4647;48.072;11.616;2023-01-28T00:44:58;95566.28;;;-1.93;85.65
9225;BME280;4647;48.072;11.616;2023-01-28T00:47:27;95561.16;;;-1.98;85.65
9225;BME280;4647;48.072;11.616;2023-01-28T00:49:55;95564.56;;;-1.89;85.56
9225;BME280;4647;48.072;11.616;2023-01-28T00:52:24;95562.50;;;-1.83;85.28
9225;BME280;4647;48.072;11.616;2023-01-28T00:54:53;95560.03;;;-1.89;85.62
9225;BME280;4647;48.072;11.616;2023-01-28T00:57:22;95563.69;;;-2.02;86.12
9225;BME280;4647;48.072;11.616;2023-01-28T00:59:53;95557.28;;;-2.01;86.04
9225;BME280;4647;48.072;11.616;2023-01-28T01:02:22;95559.75;;;-1.96;85.87
9225;BME280;4647;48.072;11.616;2023-01-28T01:04:51;95557.38;;;-1.89;85.46
9225;BME280;4647;48.072;11.616;2023-01-28T01:07:27;95559.19;;;-1.80;84.64
9225;BME280;4647;48.072;11.616;2023-01-28T01:10:07;95568.63;;;-1.92;84.51
9225;BME280;4647;48.072;11.616;2023-01-28T01:12:36;95568.63;;;-1.92;83.88
9225;BME280;4647;48.072;11.616;2023-01-28T01:15:09;95570.16;;;-1.91;83.96
9225;BME280;4647;48.072;11.616;2023-01-28T01:17:38;95567.06;;;-1.93;84.26
9225;BME280;4647;48.072;11.616;2023-01-28T01:20:10;95573.88;;;-2.04;84.69
9225;BME280;4647;48.072;11.616;2023-01-28T01:22:40;95571.22;;;-2.04;84.94
9225;BME280;4647;48.072;11.616;2023-01-28T01:25:09;95570.56;;;-2.01;84.33
9225;BME280;4647;48.072;11.616;2023-01-28T01:27:40;95571.66;;;-2.02;84.72
9225;BME280;4647;48.072;11.616;2023-01-28T01:30:13;95563.69;;;-2.02;84.59
9225;BME280;4647;48.072;11.616;2023-01-28T01:32:42;95571.88;;;-2.16;85.15
9225;BME280;4647;48.072;11.616;2023-01-28T01:35:10;95569.47;;;-2.00;84.70
9225;BME280;4647;48.072;11.616;2023-01-28T01:37:39;95566.09;;;-2.09;85.05
9225;BME280;4647;48.072;11.616;2023-01-28T01:40:11;95576.84;;;-2.05;85.27
9225;BME280;4647;48.072;11.616;2023-01-28T01:42:40;95579.38;;;-2.09;84.96
9225;BME280;4647;48.072;11.616;2023-01-28T01:45:13;95580.13;;;-2.08;85.15
9225;BME280;4647;48.072;11.616;2023-01-28T01:47:45;95579.44;;;-1.97;84.94
9225;BME280;4647;48.072;11.616;2023-01-28T01:50:19;95582.28;;;-2.02;84.96
9225;BME280;4647;48.072;11.616;2023-01-28T01:52:52;95586.94;;;-1.99;84.78
9225;BME280;4647;48.072;11.616;2023-01-28T01:55:23;95585.44;;;-2.08;85.06
9225;BME280;4647;48.072;11.616;2023-01-28T01:57:54;95587.00;;;-2.07;84.43
9225;BME280;4647;48.072;11.616;2023-01-28T02:00:27;95583.47;;;-2.20;85.38
9225;BME280;4647;48.072;11.616;2023-01-28T02:02:56;95582.16;;;-2.05;84.78
9225;BME280;4647;48.072;11.616;2023-01-28T02:05:25;95589.84;;;-2.12;84.63
9225;BME280;4647;48.072;11.616;2023-01-28T02:07:56;95587.31;;;-2.09;83.92
9225;BME280;4647;48.072;11.616;2023-01-28T02:10:47;95588.38;;;-2.01;83.57
9225;BME280;4647;48.072;11.616;2023-01-28T02:13:22;95586.91;;;-2.20;84.49
9225;BME280;4647;48.072;11.616;2023-01-28T02:15:57;95583.28;;;-2.15;84.56
9225;BME280;4647;48.072;11.616;2023-01-28T02:18:26;95589.69;;;-2.16;84.68
9225;BME280;4647;48.072;11.616;2023-01-28T02:21:09;95598.22;;;-2.31;85.34
9225;BME280;4647;48.072;11.616;2023-01-28T02:23:51;95596.81;;;-2.37;85.66
9225;BME280;4647;48.072;11.616;2023-01-28T02:26:41;95603.06;;;-2.33;85.00
9225;BME280;4647;48.072;11.616;2023-01-28T02:29:21;95601.00;;;-2.28;85.23
9225;BME280;4647;48.072;11.616;2023-01-28T02:32:02;95596.09;;;-2.17;84.86
9225;BME280;4647;48.072;11.616;2023-01-28T02:34:36;95593.72;;;-2.10;84.69
9225;BME280;4647;48.072;11.616;2023-01-28T02:37:13;95596.19;;;-2.05;84.30
9225;BME280;4647;48.072;11.616;2023-01-28T02:39:46;95592.00;;;-2.14;84.75
9225;BME280;4647;48.072;11.616;2023-01-28T02:42:18;95596.72;;;-2.11;84.69
9225;BME280;4647;48.072;11.616;2023-01-28T02:44:52;95598.75;;;-2.17;85.00
9225;BME280;4647;48.072;11.616;2023-01-28T02:47:21;95602.47;;;-2.09;84.80
9225;BME280;4647;48.072;11.616;2023-01-28T02:50:06;95602.78;;;-2.11;85.11
9225;BME280;4647;48.072;11.616;2023-01-28T02:52:45;95603.84;;;-2.03;84.88
9225;BME280;4647;48.072;11.616;2023-01-28T02:55:38;95599.31;;;-2.03;84.96
9225;BME280;4647;48.072;11.616;2023-01-28T02:58:14;95597.75;;;-2.04;84.71
9225;BME280;4647;48.072;11.616;2023-01-28T03:00:54;95602.28;;;-2.04;84.89
9225;BME280;4647;48.072;11.616;2023-01-28T03:03:28;95606.31;;;-1.98;84.48
9225;BME280;4647;48.072;11.616;2023-01-28T03:06:03;95608.38;;;-2.04;84.68
9225;BME280;4647;48.072;11.616;2023-01-28T03:08:38;95605.78;;;-2.21;85.37
9225;BME280;4647;48.072;11.616;2023-01-28T03:11:35;95606.94;;;-2.01;84.90
9225;BME280;4647;48.072;11.616;2023-01-28T03:14:17;95608.69;;;-2.05;84.72
9225;BME280;4647;48.072;11.616;2023-01-28T03:17:04;95613.22;;;-2.06;84.93
9225;BME280;4647;48.072;11.616;2023-01-28T03:19:48;95614.53;;;-2.21;85.44
9225;BME280;4647;48.072;11.616;2023-01-28T03:22:33;95609.16;;;-2.03;85.22
9225;BME280;4647;48.072;11.616;2023-01-28T03:25:19;95616.97;;;-2.07;84.80
9225;BME280;4647;48.072;11.616;2023-01-28T03:28:07;95617.56;;;-2.01;84.62
9225;BME280;4647;48.072;11.616;2023-01-28T03:30:55;95617.50;;;-1.93;83.92
9225;BME280;4647;48.072;11.616;2023-01-28T03:33:48;95615.56;;;-2.04;83.92
9225;BME280;4647;48.072;11.616;2023-01-28T03:36:31;95627.13;;;-2.09;83.86
9225;BME280;4647;48.072;11.616;2023-01-28T03:39:36;95623.19;;;-2.03;83.54
9225;BME280;4647;48.072;11.616;2023-01-28T03:42:11;95616.78;;;-2.02;83.77
9225;BME280;4647;48.072;11.616;2023-01-28T03:45:13;95626.50;;;-2.06;83.81
9225;BME280;4647;48.072;11.616;2023-01-28T03:47:44;95620.72;;;-2.08;83.72
9225;BME280;4647;48.072;11.616;2023-01-28T03:50:18;95619.44;;;-2.02;83.80
9225;BME280;4647;48.072;11.616;2023-01-28T03:52:54;95625.13;;;-2.12;83.78
9225;BME280;4647;48.072;11.616;2023-01-28T03:55:45;95619.50;;;-2.10;83.73
9225;BME280;4647;48.072;11.616;2023-01-28T03:58:15;95626.19;;;-2.13;83.45
9225;BME280;4647;48.072;11.616;2023-01-28T04:00:45;95627.00;;;-2.12;83.92
9225;BME280;4647;48.072;11.616;2023-01-28T04:03:15;95632.25;;;-2.04;83.40
9225;BME280;4647;48.072;11.616;2023-01-28T04:06:00;95631.63;;;-2.01;83.24
9225;BME280;4647;48.072;11.616;2023-01-28T04:08:53;95630.78;;;-1.93;83.44
9225;BME280;4647;48.072;11.616;2023-01-28T04:11:42;95629.88;;;-1.97;83.67
9225;BME280;4647;48.072;11.616;2023-01-28T04:14:15;95638.16;;;-1.98;83.66
9225;BME280;4647;48.072;11.616;2023-01-28T04:16:51;95646.03;;;-2.10;83.78
9225;BME280;4647;48.072;11.616;2023-01-28T04:19:23;95634.00;;;-2.08;83.43
9225;BME280;4647;48.072;11.616;2023-01-28T04:21:56;95638.56;;;-2.17;84.48
9225;BME280;4647;48.072;11.616;2023-01-28T04:24:25;95650.53;;;-2.02;83.21
9225;BME280;4647;48.072;11.616;2023-01-28T04:26:53;95656.03;;;-2.07;83.07
9225;BME280;4647;48.072;11.616;2023-01-28T04:29:22;95646.81;;;-2.10;83.13
9225;BME280;4647;48.072;11.616;2023-01-28T04:31:53;95644.06;;;-1.93;82.86
9225;BME280;4647;48.072;11.616;2023-01-28T04:34:33;95653.38;;;-2.07;82.91
9225;BME280;4647;48.072;11.616;2023-01-28T04:37:28;95655.88;;;-2.11;82.51
9225;BME280;4647;48.072;11.616;2023-01-28T04:40:23;95655.31;;;-1.96;82.33
9225;BME280;4647;48.072;11.616;2023-01-28T04:42:56;95658.63;;;-1.99;82.77
9225;BME280;4647;48.072;11.616;2023-01-28T04:45:54;95660.63;;;-1.96;82.58
9225;BME280;4647;48.072;11.616;2023-01-28T04:48:39;95662.16;;;-1.86;82.19
9225;BME280;4647;48.072;11.616;2023-01-28T04:51:14;95664.53;;;-1.93;82.30
9225;BME280;4647;48.072;11.616;2023-01-28T04:54:08;95672.72;;;-2.07;82.97
9225;BME280;4647;48.072;11.616;2023-01-28T04:56:37;95669.88;;;-2.02;82.75
9225;BME280;4647;48.072;11.616;2023-01-28T04:59:05;95670.78;;;-1.98;82.65
9225;BME280;4647;48.072;11.616;2023-01-28T05:01:34;95672.63;;;-1.90;82.24
9225;BME280;4647;48.072;11.616;2023-01-28T05:04:04;95670.66;;;-2.01;82.55
9225;BME280;4647;48.072;11.616;2023-01-28T05:06:36;95670.53;;;-2.05;83.03
9225;BME280;4647;48.072;11.616;2023-01-28T05:09:15;95671.56;;;-1.89;82.73
9225;BME280;4647;48.072;11.616;2023-01-28T05:11:44;95670.44;;;-1.88;82.44
9225;BME280;4647;48.072;11.616;2023-01-28T05:14:14;95670.28;;;-1.91;82.82
9225;BME280;4647;48.072;11.616;2023-01-28T05:17:01;95678.91;;;-1.94;82.93
9225;BME280;4647;48.072;11.616;2023-01-28T05:19:31;95680.97;;;-2.00;83.27
9225;BME280;4647;48.072;11.616;2023-01-28T05:22:01;95681.28;;;-1.72;82.58
9225;BME280;4647;48.072;11.616;2023-01-28T05:24:39;95678.81;;;-1.77;82.94
9225;BME280;4647;48.072;11.616;2023-01-28T05:27:07;95677.31;;;-1.87;83.04
9225;BME280;4647;48.072;11.616;2023-01-28T05:29:36;95674.66;;;-1.87;83.52
9225;BME280;4647;48.072;11.616;2023-01-28T05:32:05;95688.16;;;-1.71;82.83
9225;BME280;4647;48.072;11.616;2023-01-28T05:34:34;95688.47;;;-2.02;84.54
9225;BME280;4647;48.072;11.616;2023-01-28T05:37:08;95692.59;;;-1.83;83.79
9225;BME280;4647;48.072;11.616;2023-01-28T05:39:40;95694.31;;;-1.79;83.65
9225;BME280;4647;48.072;11.616;2023-01-28T05:42:09;95699.72;;;-2.05;84.80
9225;BME280;4647;48.072;11.616;2023-01-28T05:44:44;95698.50;;;-2.16;85.29
9225;BME280;4647;48.072;11.616;2023-01-28T05:47:35;95701.56;;;-1.97;84.42
9225;BME280;4647;48.072;11.616;2023-01-28T05:50:24;95700.09;;;-2.24;85.80
9225;BME280;4647;48.072;11.616;2023-01-28T05:53:14;95701.16;;;-2.16;85.71
9225;BME280;4647;48.072;11.616;2023-01-28T05:55:49;95716.13;;;-2.03;85.05
9225;BME280;4647;48.072;11.616;2023-01-28T05:58:19;95716.38;;;-1.96;84.39
9225;BME280;4647;48.072;11.616;2023-01-28T06:00:47;95720.47;;;-1.98;84.25
9225;BME280;4647;48.072;11.616;2023-01-28T06:03:21;95715.78;;;-2.01;84.11
9225;BME280;4647;48.072;11.616;2023-01-28T06:05:50;95721.22;;;-1.89;83.86
9225;BME280;4647;48.072;11.616;2023-01-28T06:08:18;95724.16;;;-1.91;84.13
9225;BME280;4647;48.072;11.616;2023-01-28T06:10:49;95718.72;;;-1.94;83.73
9225;BME280;4647;48.072;11.616;2023-01-28T06:13:20;95726.59;;;-2.06;84.48
9225;BME280;4647;48.072;11.616;2023-01-28T06:16:09;95726.03;;;-1.82;83.73
9225;BME280;4647;48.072;11.616;2023-01-28T06:18:45;95740.81;;;-2.11;84.72
9225;BME280;4647;48.072;11.616;2023-01-28T06:21:14;95729.66;;;-1.96;84.15
9225;BME280;4647;48.072;11.616;2023-01-28T06:23:43;95732.63;;;-1.89;83.91
9225;BME280;4647;48.072;11.616;2023-01-28T06:26:14;95732.34;;;-2.04;84.26
9225;BME280;4647;48.072;11.616;2023-01-28T06:28:45;95732.03;;;-2.03;84.35
9225;BME280;4647;48.072;11.616;2023-01-28T06:31:13;95737.53;;;-2.08;84.09
9225;BME280;4647;48.072;11.616;2023-01-28T06:33:42;95735.00;;;-2.04;84.32
9225;BME280;4647;48.072;11.616;2023-01-28T06:36:10;95733.09;;;-1.95;83.74
9225;BME280;4647;48.072;11.616;2023-01-28T06:38:39;95753.28;;;-2.03;84.57
9225;BME280;4647;48.072;11.616;2023-01-28T06:41:07;95747.50;;;-2.13;84.39
9225;BME280;4647;48.072;11.616;2023-01-28T06:43:38;95742.66;;;-2.03;84.35
9225;BME280;4647;48.072;11.616;2023-01-28T06:46:07;95748.75;;;-2.02;84.44
9225;BME280;4647;48.072;11.616;2023-01-28T06:48:35;95751.84;;;-2.00;84.26
9225;BME280;4647;48.072;11.616;2023-01-28T06:51:04;95752.81;;;-2.13;84.40
9225;BME280;4647;48.072;11.616;2023-01-28T06:53:33;95749.25;;;-2.09;84.25
9225;BME280;4647;48.072;11.616;2023-01-28T06:56:02;95747.59;;;-1.93;83.81
9225;BME280;4647;48.072;11.616;2023-01-28T06:58:31;95759.78;;;-1.92;84.05
9225;BME280;4647;48.072;11.616;2023-01-28T07:01:02;95749.09;;;-1.74;83.12
9225;BME280;4647;48.072;11.616;2023-01-28T07:03:31;95749.94;;;-1.91;84.01
9225;BME280;4647;48.072;11.616;2023-01-28T07:05:59;95764.19;;;-1.96;84.09
9225;BME280;4647;48.072;11.616;2023-01-28T07:08:28;95773.09;;;-2.00;84.49
9225;BME280;4647;48.072;11.616;2023-01-28T07:10:57;95769.53;;;-2.04;84.75
9225;BME280;4647;48.072;11.616;2023-01-28T07:13:26;95771.56;;;-2.10;84.86
9225;BME280;4647;48.072;11.616;2023-01-28T07:15:55;95773.53;;;-1.90;83.66
9225;BME280;4647;48.072;11.616;2023-01-28T07:18:26;95772.78;;;-1.99;84.02
9225;BME280;4647;48.072;11.616;2023-01-28T07:20:54;95770.41;;;-1.92;83.76
9225;BME280;4647;48.072;11.616;2023-01-28T07:23:23;95771.63;;;-1.80;83.42
9225;BME280;4647;48.072;11.616;2023-01-28T07:25:52;95770.84;;;-1.81;83.72
9225;BME280;4647;48.072;11.616;2023-01-28T07:28:21;95767.56;;;-1.78;83.52
9225;BME280;4647;48.072;11.616;2023-01-28T07:30:49;95781.78;;;-1.82;83.30
9225;BME280;4647;48.072;11.616;2023-01-28T07:33:19;95780.19;;;-1.75;83.50
9225;BME280;4647;48.072;11.616;2023-01-28T07:35:50;95785.38;;;-1.78;82.63
9225;BME280;4647;48.072;11.616;2023-01-28T07:38:19;95796.28;;;-1.71;82.75
9225;BME280;4647;48.072;11.616;2023-01-28T07:40:47;95791.19;;;-1.85;83.53
9225;BME280;4647;48.072;11.616;2023-01-28T07:43:16;95783.00;;;-1.71;83.15
9225;BME280;4647;48.072;11.616;2023-01-28T07:45:45;95789.34;;;-1.55;82.64
9225;BME280;4647;48.072;11.616;2023-01-28T07:48:13;95795.63;;;-1.60;82.02
9225;BME280;4647;48.072;11.616;2023-01-28T07:50:42;95791.69;;;-1.53;81.66
9225;BME280;4647;48.072;11.616;2023-01-28T07:53:15;95795.22;;;-1.41;81.51
9225;BME280;4647;48.072;11.616;2023-01-28T07:55:44;95798.59;;;-1.61;82.11
9225;BME280;4647;48.072;11.616;2023-01-28T07:58:13;95808.44;;;-1.62;82.70
9225;BME280;4647;48.072;11.616;2023-01-28T08:00:42;95804.81;;;-1.57;82.55
9225;BME280;4647;48.072;11.616;2023-01-28T08:03:12;95818.63;;;-1.72;82.86
9225;BME280;4647;48.072;11.616;2023-01-28T08:05:43;95816.59;;;-1.75;82.72
9225;BME280;4647;48.072;11.616;2023-01-28T08:08:15;95816.81;;;-1.89;83.80
9225;BME280;4647;48.072;11.616;2023-01-28T08:10:44;95822.91;;;-1.89;83.01
9225;BME280;4647;48.072;11.616;2023-01-28T08:13:15;95826.75;;;-1.77;82.54
9225;BME280;4647;48.072;11.616;2023-01-28T08:15:44;95830.56;;;-1.96;83.33
9225;BME280;4647;48.072;11.616;2023-01-28T08:18:15;95830.88;;;-1.89;83.36
9225;BME280;4647;48.072;11.616;2023-01-28T08:20:43;95832.03;;;-1.69;82.93
9225;BME280;4647;48.072;11.616;2023-01-28T08:23:16;95828.09;;;-1.54;82.75
9225;BME280;4647;48.072;11.616;2023-01-28T08:25:46;95834.56;;;-1.72;83.17
9225;BME280;4647;48.072;11.616;2023-01-28T08:28:16;95842.34;;;-1.67;83.74
9225;BME280;4647;48.072;11.616;2023-01-28T08:30:44;95836.47;;;-1.35;82.33
9225;BME280;4647;48.072;11.616;2023-01-28T08:33:15;95844.63;;;-1.48;82.84
9225;BME280;4647;48.072;11.616;2023-01-28T08:35:44;95844.03;;;-1.54;82.61
9225;BME280;4647;48.072;11.616;2023-01-28T08:38:15;95850.72;;;-1.48;82.34
9225;BME280;4647;48.072;11.616;2023-01-28T08:40:44;95847.47;;;-1.53;82.80
9225;BME280;4647;48.072;11.616;2023-01-28T08:43:15;95849.81;;;-1.52;82.97
9225;BME280;4647;48.072;11.616;2023-01-28T08:45:43;95852.94;;;-1.50;82.46
9225;BME280;4647;48.072;11.616;2023-01-28T08:48:14;95851.50;;;-1.39;82.17
9225;BME280;4647;48.072;11.616;2023-01-28T08:50:44;95859.00;;;-1.41;82.67
9225;BME280;4647;48.072;11.616;2023-01-28T08:53:16;95852.75;;;-1.45;83.06
9225;BME280;4647;48.072;11.616;2023-01-28T08:55:46;95850.84;;;-1.36;81.99
9225;BME280;4647;48.072;11.616;2023-01-28T08:58:16;95851.28;;;-1.25;81.84
9225;BME280;4647;48.072;11.616;2023-01-28T09:00:46;95847.25;;;-1.31;82.13
9225;BME280;4647;48.072;11.616;2023-01-28T09:03:16;95855.03;;;-1.26;81.82
9225;BME280;4647;48.072;11.616;2023-01-28T09:05:45;95864.25;;;-1.24;81.45
9225;BME280;4647;48.072;11.616;2023-01-28T09:08:16;95857.94;;;-1.10;81.06
9225;BME280;4647;48.072;11.616;2023-01-28T09:10:45;95859.75;;;-1.32;80.78
9225;BME280;4647;48.072;11.616;2023-01-28T09:13:14;95861.84;;;-1.08;80.33
9225;BME280;4647;48.072;11.616;2023-01-28T09:15:43;95864.03;;;-1.10;80.41
9225;BME280;4647;48.072;11.616;2023-01-28T09:18:12;95863.97;;;-1.01;79.88
9225;BME280;4647;48.072;11.616;2023-01-28T09:20:40;95870.50;;;-0.90;80.12
9225;BME280;4647;48.072;11.616;2023-01-28T09:23:10;95871.94;;;-0.72;79.08
9225;BME280;4647;48.072;11.616;2023-01-28T09:25:41;95866.50;;;-1.05;80.12
9225;BME280;4647;48.072;11.616;2023-01-28T09:28:10;95872.19;;;-1.15;80.65
9225;BME280;4647;48.072;11.616;2023-01-28T09:30:38;95873.97;;;-0.98;79.94
9225;BME280;4647;48.072;11.616;2023-01-28T09:33:07;95870.66;;;-0.95;80.27
9225;BME280;4647;48.072;11.616;2023-01-28T09:35:36;95870.09;;;-0.50;78.56
9225;BME280;4647;48.072;11.616;2023-01-28T09:38:04;95872.72;;;-0.92;80.15
9225;BME280;4647;48.072;11.616;2023-01-28T09:40:35;95862.88;;;-0.71;79.55
9225;BME280;4647;48.072;11.616;2023-01-28T09:46:07;95866.31;;;-0.70;79.58
9225;BME280;4647;48.072;11.616;2023-01-28T09:48:40;95860.69;;;-0.48;78.38
9225;BME280;4647;48.072;11.616;2023-01-28T09:51:19;95867.31;;;-0.54;78.03
9225;BME280;4647;48.072;11.616;2023-01-28T09:53:51;95854.56;;;-0.48;77.86
9225;BME280;4647;48.072;11.616;2023-01-28T09:56:25;95850.56;;;-0.34;77.31
9225;BME280;4647;48.072;11.616;2023-01-28T09:59:00;95859.44;;;-0.29;76.86
9225;BME280;4647;48.072;11.616;2023-01-28T10:01:39;95854.53;;;-0.40;77.37
9225;BME280;4647;48.072;11.616;2023-01-28T10:04:17;95853.88;;;-0.16;77.38
9225;BME280;4647;48.072;11.616;2023-01-28T10:06:57;95855.56;;;-0.32;77.17
9225;BME280;4647;48.072;11.616;2023-01-28T10:09:34;95851.25;;;-0.04;75.78
9225;BME280;4647;48.072;11.616;2023-01-28T10:12:22;95852.00;;;-0.36;76.35
9225;BME280;4647;48.072;11.616;2023-01-28T10:15:16;95853.75;;;-0.40;75.83
9225;BME280;4647;48.072;11.616;2023-01-28T10:17:49;95847.88;;;-0.54;76.48
9225;BME280;4647;48.072;11.616;2023-01-28T10:20:23;95858.00;;;-0.27;76.23
9225;BME280;4647;48.072;11.616;2023-01-28T10:22:57;95842.09;;;-0.15;75.58
9225;BME280;4647;48.072;11.616;2023-01-28T10:25:30;95848.78;;;-0.09;75.23
9225;BME280;4647;48.072;11.616;2023-01-28T10:28:00;95847.63;;;0.01;74.92
9225;BME280;4647;48.072;11.616;2023-01-28T10:30:34;95842.22;;;-0.11;75.36
9225;BME280;4647;48.072;11.616;2023-01-28T10:33:15;95850.66;;;0.81;71.86
9225;BME280;4647;48.072;11.616;2023-01-28T10:35:45;95842.00;;;0.72;72.04
9225;BME280;4647;48.072;11.616;2023-01-28T10:38:16;95845.03;;;0.38;72.22
9225;BME280;4647;48.072;11.616;2023-01-28T10:40:47;95847.63;;;0.58;72.33
9225;BME280;4647;48.072;11.616;2023-01-28T10:43:19;95852.34;;;0.74;71.39
9225;BME280;4647;48.072;11.616;2023-01-28T10:45:57;95847.75;;;0.50;72.67
9225;BME280;4647;48.072;11.616;2023-01-28T10:48:31;95845.19;;;0.66;72.67
9225;BME280;4647;48.072;11.616;2023-01-28T10:51:02;95844.72;;;1.49;68.56
9225;BME280;4647;48.072;11.616;2023-01-28T10:53:35;95839.13;;;1.02;70.06
9225;BME280;4647;48.072;11.616;2023-01-28T10:56:07;95839.66;;;1.19;69.29
9225;BME280;4647;48.072;11.616;2023-01-28T10:58:47;95844.13;;;0.79;70.82
9225;BME280;4647;48.072;11.616;2023-01-28T11:01:20;95841.88;;;0.56;70.38
9225;BME280;4647;48.072;11.616;2023-01-28T11:03:53;95842.63;;;0.69;69.00
9225;BME280;4647;48.072;11.616;2023-01-28T11:06:24;95850.09;;;0.51;69.92
9225;BME280;4647;48.072;11.616;2023-01-28T11:08:52;95836.97;;;0.71;69.80
9225;BME280;4647;48.072;11.616;2023-01-28T11:11:23;95835.88;;;0.84;69.00
9225;BME280;4647;48.072;11.616;2023-01-28T11:13:53;95841.63;;;0.61;69.64
9225;BME280;4647;48.072;11.616;2023-01-28T11:16:25;95835.88;;;1.20;68.88
9225;BME280;4647;48.072;11.616;2023-01-28T11:18:57;95836.88;;;1.04;71.46
9225;BME280;4647;48.072;11.616;2023-01-28T11:21:30;95834.34;;;1.60;67.78
9225;BME280;4647;48.072;11.616;2023-01-28T11:24:01;95832.91;;;1.62;67.56
9225;BME280;4647;48.072;11.616;2023-01-28T11:26:33;95838.56;;;1.20;67.82
9225;BME280;4647;48.072;11.616;2023-01-28T11:29:03;95848.78;;;1.06;68.52
9225;BME280;4647;48.072;11.616;2023-01-28T11:31:40;95842.00;;;1.09;68.49
9225;BME280;4647;48.072;11.616;2023-01-28T11:34:14;95832.66;;;1.03;68.48
9225;BME280;4647;48.072;11.616;2023-01-28T11:37:00;95839.88;;;0.90;68.60
9225;BME280;4647;48.072;11.616;2023-01-28T11:39:30;95840.88;;;1.22;67.70
9225;BME280;4647;48.072;11.616;2023-01-28T11:42:15;95845.22;;;1.02;67.41
9225;BME280;4647;48.072;11.616;2023-01-28T11:44:45;95839.88;;;0.90;68.26
9225;BME280;4647;48.072;11.616;2023-01-28T11:47:25;95847.41;;;0.64;68.48
9225;BME280;4647;48.072;11.616;2023-01-28T11:50:15;95856.88;;;0.85;68.48
9225;BME280;4647;48.072;11.616;2023-01-28T11:52:53;95849.41;;;0.54;69.50
9225;BME280;4647;48.072;11.616;2023-01-28T11:55:36;95848.44;;;0.83;68.75
9225;BME280;4647;48.072;11.616;2023-01-28T11:58:14;95845.56;;;1.01;67.79
9225;BME280;4647;48.072;11.616;2023-01-28T12:00:51;95840.56;;;0.87;68.23
9225;BME280;4647;48.072;11.616;2023-01-28T12:03:45;95841.63;;;1.47;66.37
9225;BME280;4647;48.072;11.616;2023-01-28T12:06:34;95838.41;;;1.81;65.94
9225;BME280;4647;48.072;11.616;2023-01-28T12:09:13;95832.47;;;0.96;68.90
9225;BME280;4647;48.072;11.616;2023-01-28T12:11:58;95839.88;;;1.27;68.09
9225;BME280;4647;48.072;11.616;2023-01-28T12:15:00;95837.88;;;0.50;69.79
9225;BME280;4647;48.072;11.616;2023-01-28T12:17:42;95843.78;;;1.05;66.95
9225;BME280;4647;48.072;11.616;2023-01-28T12:20:25;95840.22;;;1.01;67.81
9225;BME280;4647;48.072;11.616;2023-01-28T12:23:09;95850.44;;;0.86;68.63
9225;BME280;4647;48.072;11.616;2023-01-28T12:25:56;95844.22;;;0.95;68.13
9225;BME280;4647;48.072;11.616;2023-01-28T12:28:38;95844.66;;;0.72;69.25
9225;BME280;4647;48.072;11.616;2023-01-28T12:31:34;95847.47;;;1.00;68.05
9225;BME280;4647;48.072;11.616;2023-01-28T12:34:39;95841.09;;;0.80;69.23
9225;BME280;4647;48.072;11.616;2023-01-28T12:37:21;95847.88;;;0.78;68.90
9225;BME280;4647;48.072;11.616;2023-01-28T12:40:04;95848.31;;;0.92;68.44
9225;BME280;4647;48.072;11.616;2023-01-28T12:42:39;95847.09;;;0.65;69.86
9225;BME280;4647;48.072;11.616;2023-01-28T12:45:14;95850.22;;;1.04;68.14
9225;BME280;4647;48.072;11.616;2023-01-28T12:47:50;95850.97;;;0.55;69.06
9225;BME280;4647;48.072;11.616;2023-01-28T12:50:24;95849.44;;;1.03;66.81
9225;BME280;4647;48.072;11.616;2023-01-28T12:53:00;95852.22;;;0.95;66.94
9225;BME280;4647;48.072;11.616;2023-01-28T12:55:37;95845.78;;;0.96;65.42
9225;BME280;4647;48.072;11.616;2023-01-28T12:58:12;95843.44;;;1.06;66.01
9225;BME280;4647;48.072;11.616;2023-01-28T13:00:47;95847.88;;;1.14;66.67
9225;BME280;4647;48.072;11.616;2023-01-28T13:03:20;95845.75;;;1.44;65.67
9225;BME280;4647;48.072;11.616;2023-01-28T13:05:55;95856.28;;;1.53;64.38
9225;BME280;4647;48.072;11.616;2023-01-28T13:08:29;95844.00;;;1.00;66.43
9225;BME280;4647;48.072;11.616;2023-01-28T13:10:59;95845.44;;;1.09;64.62
9225;BME280;4647;48.072;11.616;2023-01-28T13:13:31;95846.00;;;1.27;65.08
9225;BME280;4647;48.072;11.616;2023-01-28T13:16:01;95849.88;;;1.17;65.38
9225;BME280;4647;48.072;11.616;2023-01-28T13:18:33;95847.47;;;1.00;65.64
9225;BME280;4647;48.072;11.616;2023-01-28T13:21:03;95859.31;;;0.90;66.66
9225;BME280;4647;48.072;11.616;2023-01-28T13:23:41;95857.56;;;1.07;66.66
9225;BME280;4647;48.072;11.616;2023-01-28T13:26:26;95854.00;;;1.15;66.01
9225;BME280;4647;48.072;11.616;2023-01-28T13:29:14;95855.44;;;1.12;66.77
9225;BME280;4647;48.072;11.616;2023-01-28T13:31:46;95858.66;;;0.93;66.92
9225;BME280;4647;48.072;11.616;2023-01-28T13:34:35;95859.69;;;1.01;66.04
9225;BME280;4647;48.072;11.616;2023-01-28T13:37:18;95860.56;;;0.93;66.27
9225;BME280;4647;48.072;11.616;2023-01-28T13:40:00;95869.03;;;0.95;67.15
9225;BME280;4647;48.072;11.616;2023-01-28T13:42:30;95865.44;;;0.91;66.33
9225;BME280;4647;48.072;11.616;2023-01-28T13:45:20;95863.75;;;0.62;67.29
9225;BME280;4647;48.072;11.616;2023-01-28T13:47:52;95866.03;;;0.97;66.85
9225;BME280;4647;48.072;11.616;2023-01-28T13:50:36;95865.19;;;0.59;68.47
9225;BME280;4647;48.072;11.616;2023-01-28T13:53:18;95872.78;;;0.82;67.55